Time;durP1;ratioP1;P1;durP2;ratioP2;P2;SDS_P1;SDS_P2;PMS_P1;PMS_P2;Temp;Humidity;BMP_temperature;BMP_pressure;BME280_temperature;BME280_humidity;BME280_pressure;Samples;Min_cycle;Max_cycle;Signal;HPM_P1;HPM_P2
2021/10/05 00:01:58;;;;;;;8.82;5.43;;;11.50;99.90;;;;;;4997151;28;20150;-79
2021/10/05 00:04:26;;;;;;;8.75;5.55;;;11.40;99.90;;;;;;4997650;28;20056;-79
2021/10/05 00:06:53;;;;;;;7.20;5.20;;;11.30;99.90;;;;;;4997886;28;20053;-79
2021/10/05 00:09:20;;;;;;;6.95;5.78;;;11.40;99.90;;;;;;4997985;28;20080;-79
2021/10/05 00:11:47;;;;;;;7.82;5.32;;;11.40;99.90;;;;;;4998488;28;20050;-79
2021/10/05 00:14:14;;;;;;;7.72;5.70;;;11.40;99.90;;;;;;4998293;28;20058;-79
2021/10/05 00:16:41;;;;;;;9.07;5.60;;;11.40;99.90;;;;;;4999663;28;20129;-80
2021/10/05 00:19:08;;;;;;;7.30;5.53;;;11.30;99.90;;;;;;5000077;28;20052;-80
2021/10/05 00:21:36;;;;;;;8.95;5.93;;;11.30;99.90;;;;;;4998400;28;20356;-79
2021/10/05 00:24:03;;;;;;;7.82;5.90;;;11.30;99.90;;;;;;4996787;28;20142;-78
2021/10/05 00:26:30;;;;;;;10.32;6.05;;;11.30;99.90;;;;;;4997635;28;20117;-79
2021/10/05 00:28:56;;;;;;;8.65;5.57;;;11.30;99.90;;;;;;4998595;28;20093;-80
2021/10/05 00:31:23;;;;;;;8.35;6.18;;;11.30;99.90;;;;;;4999116;28;20125;-80
2021/10/05 00:33:50;;;;;;;7.72;6.32;;;11.20;99.90;;;;;;4996933;28;20133;-78
2021/10/05 00:36:17;;;;;;;7.20;5.80;;;11.20;99.90;;;;;;4996050;28;20109;-79
2021/10/05 00:38:46;;;;;;;8.65;6.10;;;11.10;99.90;;;;;;4997112;28;20062;-79
2021/10/05 00:41:12;;;;;;;8.82;6.38;;;11.10;99.90;;;;;;4998376;28;20164;-78
2021/10/05 00:43:39;;;;;;;7.55;6.30;;;11.00;99.90;;;;;;4996589;28;20050;-79
2021/10/05 00:46:08;;;;;;;7.63;6.18;;;11.00;99.90;;;;;;4997108;28;20362;-79
2021/10/05 00:48:35;;;;;;;11.15;7.75;;;11.00;99.90;;;;;;4997757;28;20058;-79
2021/10/05 00:51:01;;;;;;;8.85;6.57;;;11.00;99.90;;;;;;4997349;28;20050;-79
2021/10/05 00:53:28;;;;;;;10.00;7.18;;;11.00;99.90;;;;;;4997144;28;20050;-79
2021/10/05 00:55:57;;;;;;;8.55;7.20;;;11.00;99.90;;;;;;4996990;28;20137;-79
2021/10/05 00:58:24;;;;;;;9.32;6.28;;;11.00;99.90;;;;;;4997252;28;20054;-79
2021/10/05 01:00:50;;;;;;;8.65;7.28;;;11.00;99.90;;;;;;4996947;28;20135;-79
2021/10/05 01:03:17;;;;;;;11.00;6.85;;;10.90;99.90;;;;;;4996714;28;20137;-79
2021/10/05 01:05:44;;;;;;;8.65;6.57;;;10.90;99.90;;;;;;4996680;28;20137;-79
2021/10/05 01:08:11;;;;;;;9.93;6.82;;;10.90;99.90;;;;;;4996821;28;20133;-79
2021/10/05 01:10:38;;;;;;;7.53;6.63;;;10.90;99.90;;;;;;4996764;28;20101;-79
2021/10/05 01:13:06;;;;;;;9.05;6.50;;;10.80;99.90;;;;;;4996199;28;20128;-79
2021/10/05 01:15:33;;;;;;;8.52;7.05;;;10.80;99.90;;;;;;4997968;28;20050;-81
2021/10/05 01:18:00;;;;;;;9.10;6.38;;;10.80;99.90;;;;;;4997532;28;20082;-79
2021/10/05 01:20:26;;;;;;;9.73;6.95;;;10.80;99.90;;;;;;4996985;28;20086;-81
2021/10/05 01:22:55;;;;;;;9.23;7.03;;;10.80;99.90;;;;;;4997877;28;20433;-81
2021/10/05 01:25:22;;;;;;;8.38;7.10;;;10.70;99.90;;;;;;4997229;28;20133;-81
2021/10/05 01:27:52;;;;;;;11.60;7.70;;;10.70;99.90;;;;;;4997383;28;20110;-81
2021/10/05 01:30:21;;;;;;;9.88;7.10;;;10.60;99.90;;;;;;4996788;28;20050;-82
2021/10/05 01:32:49;;;;;;;10.82;7.30;;;10.70;99.90;;;;;;4995845;28;20074;-82
2021/10/05 01:35:18;;;;;;;8.93;7.25;;;10.70;99.90;;;;;;4996228;28;20536;-81
2021/10/05 01:37:45;;;;;;;13.15;7.47;;;10.80;99.90;;;;;;4995773;28;20050;-80
2021/10/05 01:40:13;;;;;;;9.60;7.40;;;10.80;99.90;;;;;;4995542;28;20132;-81
2021/10/05 01:42:41;;;;;;;9.73;7.68;;;10.80;99.90;;;;;;4996153;28;20129;-80
2021/10/05 01:45:09;;;;;;;9.27;7.18;;;10.80;99.90;;;;;;4999620;28;20216;-82
2021/10/05 01:47:38;;;;;;;10.02;7.20;;;10.70;99.90;;;;;;4999227;28;20054;-82
2021/10/05 01:50:06;;;;;;;10.60;7.28;;;10.70;99.90;;;;;;4999593;28;20050;-81
2021/10/05 01:52:32;;;;;;;9.95;7.25;;;10.70;99.90;;;;;;4999266;28;20100;-81
2021/10/05 01:54:59;;;;;;;8.93;7.35;;;10.60;99.90;;;;;;4999139;28;20110;-81
2021/10/05 01:57:28;;;;;;;10.90;7.22;;;10.60;99.90;;;;;;4998368;28;20114;-80
2021/10/05 01:59:54;;;;;;;8.30;6.93;;;10.60;99.90;;;;;;4999005;28;20137;-80
2021/10/05 02:02:21;;;;;;;8.25;6.93;;;10.60;99.90;;;;;;4998581;28;20129;-80
2021/10/05 02:04:48;;;;;;;11.00;6.45;;;10.60;99.90;;;;;;4999036;28;20093;-80
2021/10/05 02:07:15;;;;;;;8.07;6.65;;;10.70;99.90;;;;;;4999232;28;20060;-79
2021/10/05 02:09:47;;;;;;;10.50;7.15;;;10.70;99.90;;;;;;4998951;28;20455;-79
2021/10/05 02:12:15;;;;;;;8.37;6.80;;;10.70;99.90;;;;;;4999091;28;20051;-79
2021/10/05 02:14:44;;;;;;;7.57;6.53;;;10.70;99.90;;;;;;4999014;28;20293;-80
2021/10/05 02:17:11;;;;;;;8.02;6.50;;;10.70;99.90;;;;;;5006251;28;20487;-80
2021/10/05 02:19:38;;;;;;;7.80;6.32;;;10.70;99.90;;;;;;5006412;28;20054;-79
2021/10/05 02:22:05;;;;;;;8.98;6.47;;;10.70;99.90;;;;;;5005646;28;20142;-79
2021/10/05 02:24:41;;;;;;;7.43;6.50;;;10.70;99.90;;;;;;5007924;28;20092;-80
2021/10/05 02:27:10;;;;;;;8.60;6.38;;;10.70;99.90;;;;;;5005758;28;20052;-79
2021/10/05 02:29:37;;;;;;;8.48;6.15;;;10.80;99.90;;;;;;4998783;28;20141;-80
2021/10/05 02:32:07;;;;;;;9.60;6.40;;;10.80;99.90;;;;;;4999016;28;20102;-80
2021/10/05 02:34:35;;;;;;;7.13;6.43;;;10.70;99.90;;;;;;4998013;28;20133;-79
2021/10/05 02:37:03;;;;;;;7.68;6.20;;;10.70;99.90;;;;;;4999096;28;20110;-80
2021/10/05 02:39:30;;;;;;;7.85;6.18;;;10.70;99.90;;;;;;4998502;28;20061;-79
2021/10/05 02:41:57;;;;;;;8.52;6.43;;;10.70;99.90;;;;;;4999565;28;20179;-80
2021/10/05 02:44:24;;;;;;;9.00;6.25;;;10.70;99.90;;;;;;4999027;28;20137;-79
2021/10/05 02:46:51;;;;;;;7.03;5.85;;;10.70;99.90;;;;;;4997905;28;20128;-79
2021/10/05 02:49:19;;;;;;;6.50;5.82;;;10.70;99.90;;;;;;4998446;28;20529;-80
2021/10/05 02:51:46;;;;;;;7.40;5.90;;;10.70;99.90;;;;;;4998243;28;20093;-80
2021/10/05 02:54:13;;;;;;;7.38;6.07;;;10.70;99.90;;;;;;4997998;28;20133;-80
2021/10/05 02:56:40;;;;;;;7.22;5.82;;;10.70;99.90;;;;;;4997983;28;20074;-80
2021/10/05 02:59:06;;;;;;;7.03;5.40;;;10.80;99.90;;;;;;4998304;28;20589;-80
2021/10/05 03:01:33;;;;;;;6.80;5.65;;;10.80;99.90;;;;;;4998296;28;20081;-81
2021/10/05 03:04:00;;;;;;;6.90;5.55;;;10.80;99.90;;;;;;4998516;28;20085;-80
2021/10/05 03:06:28;;;;;;;8.70;5.57;;;10.80;99.90;;;;;;4999076;28;20090;-80
2021/10/05 03:08:55;;;;;;;7.60;5.82;;;10.90;99.90;;;;;;4999789;28;20128;-80
2021/10/05 03:11:22;;;;;;;7.65;5.82;;;10.90;99.90;;;;;;5005692;28;20061;-79
2021/10/05 03:13:49;;;;;;;8.05;5.28;;;10.90;99.90;;;;;;5001629;28;20137;-81
2021/10/05 03:16:16;;;;;;;10.38;5.60;;;10.90;99.90;;;;;;5000857;28;20129;-80
2021/10/05 03:18:45;;;;;;;11.50;5.75;;;10.90;99.90;;;;;;5003102;28;20118;-80
2021/10/05 03:21:12;;;;;;;7.57;5.63;;;10.90;99.90;;;;;;5002235;28;20054;-80
2021/10/05 03:23:41;;;;;;;10.00;5.60;;;10.90;99.90;;;;;;5001702;28;20066;-80
2021/10/05 03:26:08;;;;;;;6.60;5.50;;;10.90;99.90;;;;;;4999174;28;20117;-81
2021/10/05 03:28:34;;;;;;;7.32;5.45;;;10.90;99.90;;;;;;5000313;28;20130;-81
2021/10/05 03:31:01;;;;;;;6.15;5.32;;;10.90;99.90;;;;;;5000647;28;20130;-79
2021/10/05 03:33:28;;;;;;;6.43;5.57;;;10.90;99.90;;;;;;5001967;28;20074;-80
2021/10/05 03:35:55;;;;;;;8.45;5.93;;;10.90;99.90;;;;;;5001668;28;20562;-79
2021/10/05 03:38:23;;;;;;;10.05;5.78;;;10.90;99.90;;;;;;5005221;28;20074;-80
2021/10/05 03:40:53;;;;;;;7.03;6.00;;;10.90;99.90;;;;;;5005008;28;20057;-79
2021/10/05 03:43:20;;;;;;;6.85;5.63;;;10.90;99.90;;;;;;5003272;28;20408;-79
2021/10/05 03:45:47;;;;;;;9.00;6.00;;;10.90;99.90;;;;;;5000203;28;20060;-79
2021/10/05 03:48:14;;;;;;;9.60;6.10;;;10.90;99.90;;;;;;5001907;28;20454;-79
2021/10/05 03:50:41;;;;;;;6.35;5.68;;;10.90;99.90;;;;;;5001843;28;20058;-80
2021/10/05 03:53:08;;;;;;;7.15;5.80;;;10.90;99.90;;;;;;4999012;28;20078;-78
2021/10/05 03:55:35;;;;;;;8.05;5.93;;;10.90;99.90;;;;;;4995773;28;20133;-78
2021/10/05 03:58:03;;;;;;;7.85;6.07;;;10.90;99.90;;;;;;4995656;28;20137;-79
2021/10/05 04:00:30;;;;;;;8.07;5.80;;;10.90;99.90;;;;;;4996737;28;20057;-79
2021/10/05 04:02:57;;;;;;;7.18;5.78;;;10.90;99.90;;;;;;4995122;28;20132;-78
2021/10/05 04:05:24;;;;;;;6.72;5.75;;;10.90;99.90;;;;;;4975257;28;20141;-79
2021/10/05 04:07:51;;;;;;;7.18;5.82;;;10.90;99.90;;;;;;4974952;28;20061;-79
2021/10/05 04:10:18;;;;;;;6.50;5.70;;;10.80;99.90;;;;;;4976110;28;20076;-79
2021/10/05 04:12:45;;;;;;;6.68;5.97;;;10.80;99.90;;;;;;4976009;28;20592;-79
2021/10/05 04:15:13;;;;;;;7.47;5.93;;;10.90;99.90;;;;;;4976214;28;20051;-79
2021/10/05 04:17:40;;;;;;;8.07;6.00;;;10.80;99.90;;;;;;4959646;28;20050;-79
2021/10/05 04:20:09;;;;;;;6.97;5.90;;;10.80;99.90;;;;;;4977563;28;20053;-79
2021/10/05 04:22:36;;;;;;;8.73;6.22;;;10.90;99.90;;;;;;4978790;28;20070;-79
2021/10/05 04:25:05;;;;;;;7.22;5.95;;;10.80;99.90;;;;;;4976117;28;20054;-82
2021/10/05 04:27:33;;;;;;;8.00;6.70;;;10.80;99.90;;;;;;4975904;28;20066;-79
2021/10/05 04:30:00;;;;;;;9.65;6.65;;;10.70;99.90;;;;;;4977140;28;20133;-79
2021/10/05 04:32:28;;;;;;;8.73;6.75;;;10.70;99.90;;;;;;4976942;28;20070;-80
2021/10/05 04:34:56;;;;;;;7.00;6.30;;;10.70;99.90;;;;;;4977730;28;20050;-79
2021/10/05 04:37:23;;;;;;;7.78;6.20;;;10.70;99.90;;;;;;4975613;28;20055;-79
2021/10/05 04:39:50;;;;;;;8.20;6.55;;;10.70;99.90;;;;;;4976448;28;20170;-79
2021/10/05 04:42:19;;;;;;;9.45;6.63;;;10.70;99.90;;;;;;4977387;28;20072;-79
2021/10/05 04:44:48;;;;;;;7.95;6.60;;;10.70;99.90;;;;;;4977086;28;20051;-79
2021/10/05 04:47:16;;;;;;;7.32;6.50;;;10.70;99.90;;;;;;4976582;28;20721;-80
2021/10/05 04:49:44;;;;;;;10.50;6.90;;;10.70;99.90;;;;;;4977729;28;20443;-79
2021/10/05 04:52:11;;;;;;;8.15;6.90;;;10.70;99.90;;;;;;4979275;28;20061;-79
2021/10/05 04:54:38;;;;;;;7.70;6.90;;;10.70;99.90;;;;;;4979942;28;20146;-78
2021/10/05 04:57:07;;;;;;;7.88;6.75;;;10.70;99.90;;;;;;4978984;28;20058;-79
2021/10/05 04:59:35;;;;;;;7.57;6.70;;;10.70;99.90;;;;;;4979168;28;20055;-79
2021/10/05 05:02:02;;;;;;;8.40;7.57;;;10.70;99.90;;;;;;4978907;28;20142;-80
2021/10/05 05:04:29;;;;;;;8.55;6.95;;;10.70;99.90;;;;;;4977131;28;20129;-78
2021/10/05 05:06:57;;;;;;;8.35;6.90;;;10.60;99.90;;;;;;4976420;28;20419;-78
2021/10/05 05:09:24;;;;;;;11.98;7.20;;;10.70;99.90;;;;;;4975908;28;20076;-78
2021/10/05 05:11:51;;;;;;;10.13;7.10;;;10.60;99.90;;;;;;4975450;28;20521;-78
2021/10/05 05:14:18;;;;;;;10.48;7.75;;;10.60;99.90;;;;;;4975195;28;20538;-78
2021/10/05 05:16:47;;;;;;;10.25;7.13;;;10.60;99.90;;;;;;4975447;28;20055;-78
2021/10/05 05:19:14;;;;;;;8.88;7.88;;;10.60;99.90;;;;;;4975573;28;20055;-78
2021/10/05 05:21:42;;;;;;;8.05;7.25;;;10.70;99.90;;;;;;4975797;28;20526;-79
2021/10/05 05:24:10;;;;;;;10.30;7.82;;;10.70;99.90;;;;;;4975745;28;20057;-79
2021/10/05 05:26:37;;;;;;;9.90;7.28;;;10.70;99.90;;;;;;4975073;28;20061;-79
2021/10/05 05:29:04;;;;;;;9.52;6.57;;;10.70;99.90;;;;;;4976395;28;20430;-79
2021/10/05 05:31:31;;;;;;;9.23;7.10;;;10.70;99.90;;;;;;4976526;28;20078;-79
2021/10/05 05:33:58;;;;;;;10.07;7.47;;;10.70;99.90;;;;;;4976682;28;20050;-80
2021/10/05 05:36:25;;;;;;;8.43;7.35;;;10.70;99.90;;;;;;4977194;28;20478;-80
2021/10/05 05:38:52;;;;;;;8.32;6.95;;;10.70;99.90;;;;;;4976711;28;20496;-80
2021/10/05 05:41:20;;;;;;;8.75;6.75;;;10.70;99.90;;;;;;4976040;28;20055;-78
2021/10/05 05:43:47;;;;;;;10.00;7.43;;;10.70;99.90;;;;;;4973733;28;20470;-78
2021/10/05 05:46:14;;;;;;;11.98;7.43;;;10.60;99.90;;;;;;4975104;28;20527;-79
2021/10/05 05:48:41;;;;;;;8.68;6.82;;;10.70;99.90;;;;;;4979126;28;20110;-79
2021/10/05 05:51:07;;;;;;;10.15;7.15;;;10.70;99.90;;;;;;4976270;28;20523;-80
2021/10/05 05:53:34;;;;;;;9.27;6.93;;;10.60;99.90;;;;;;4978627;28;20138;-80
2021/10/05 05:56:01;;;;;;;8.57;7.32;;;10.60;99.90;;;;;;4985140;28;20085;-80
2021/10/05 05:58:29;;;;;;;10.68;7.53;;;10.60;99.90;;;;;;4982801;28;20136;-79
2021/10/05 06:00:56;;;;;;;9.05;7.60;;;10.60;99.90;;;;;;4977660;28;20149;-78
2021/10/05 06:03:23;;;;;;;9.63;7.85;;;10.60;99.90;;;;;;4975224;28;20133;-79
2021/10/05 06:05:50;;;;;;;10.25;7.80;;;10.70;99.90;;;;;;4975232;28;20493;-78
2021/10/05 06:08:17;;;;;;;9.02;7.60;;;10.70;99.90;;;;;;4975415;28;20545;-80
2021/10/05 06:10:44;;;;;;;8.52;7.60;;;10.80;99.90;;;;;;4975167;28;20101;-79
2021/10/05 06:13:11;;;;;;;11.00;7.53;;;10.80;99.90;;;;;;4974501;28;20077;-81
2021/10/05 06:15:40;;;;;;;10.40;7.40;;;10.90;99.90;;;;;;4974764;28;20086;-79
2021/10/05 06:18:07;;;;;;;9.98;7.38;;;10.90;99.90;;;;;;4974058;28;20138;-80
2021/10/05 06:20:33;;;;;;;11.27;7.80;;;11.00;99.90;;;;;;4976014;28;20055;-78
2021/10/05 06:23:00;;;;;;;9.38;7.35;;;11.00;99.90;;;;;;4974741;28;20137;-78
2021/10/05 06:25:30;;;;;;;11.05;6.95;;;11.00;99.90;;;;;;4973266;28;20063;-80
2021/10/05 06:27:59;;;;;;;8.02;7.15;;;11.10;99.90;;;;;;4973736;28;20046;-78
2021/10/05 06:30:26;;;;;;;8.27;6.57;;;11.10;99.90;;;;;;4974331;28;20145;-79
2021/10/05 06:32:55;;;;;;;9.57;7.15;;;11.10;99.90;;;;;;4973700;28;20055;-79
2021/10/05 06:35:24;;;;;;;8.50;7.13;;;11.10;99.90;;;;;;4973560;28;20061;-77
2021/10/05 06:37:54;;;;;;;8.77;7.20;;;11.20;99.90;;;;;;4973713;28;20090;-78
2021/10/05 06:40:24;;;;;;;9.90;6.65;;;11.20;99.90;;;;;;5014509;23;20046;-80
2021/10/05 06:42:57;;;;;;;11.70;7.40;;;11.20;99.90;;;;;;5048117;28;20520;-81
2021/10/05 06:45:27;;;;;;;9.57;7.47;;;11.20;99.90;;;;;;5048122;28;20057;-79
2021/10/05 06:47:56;;;;;;;10.35;7.82;;;11.20;99.90;;;;;;5047896;28;20050;-78
2021/10/05 06:50:23;;;;;;;8.80;7.45;;;11.30;99.90;;;;;;5046141;28;20049;-79
2021/10/05 06:52:50;;;;;;;10.13;6.80;;;11.40;99.90;;;;;;5043589;28;20088;-79
2021/10/05 06:55:17;;;;;;;9.27;7.30;;;11.50;99.90;;;;;;5041572;28;20110;-79
2021/10/05 06:57:44;;;;;;;12.85;7.47;;;11.50;99.90;;;;;;5041906;28;20077;-80
2021/10/05 07:00:15;;;;;;;12.18;7.10;;;11.60;99.90;;;;;;5041729;28;20581;-80
2021/10/05 07:02:43;;;;;;;9.20;6.90;;;11.80;99.90;;;;;;5041358;28;20069;-79
2021/10/05 07:05:12;;;;;;;12.88;7.03;;;11.90;99.90;;;;;;5038482;28;20235;-79
2021/10/05 07:07:40;;;;;;;11.65;7.38;;;12.00;99.90;;;;;;5040382;28;20085;-79
2021/10/05 07:10:08;;;;;;;10.13;6.93;;;12.10;99.90;;;;;;5039476;28;20157;-80
2021/10/05 07:12:36;;;;;;;9.45;6.88;;;12.20;99.90;;;;;;5049219;28;20053;-80
2021/10/05 07:15:03;;;;;;;14.68;6.80;;;12.30;99.90;;;;;;5050004;28;20053;-79
2021/10/05 07:17:30;;;;;;;10.23;6.60;;;12.40;99.90;;;;;;5049548;28;20136;-79
2021/10/05 07:19:57;;;;;;;7.35;6.32;;;12.50;99.90;;;;;;5049427;28;20087;-79
2021/10/05 07:22:28;;;;;;;6.95;6.25;;;12.60;99.90;;;;;;5049883;28;20081;-79
2021/10/05 07:24:55;;;;;;;7.20;5.75;;;12.60;99.90;;;;;;5049181;28;20088;-80
2021/10/05 07:27:22;;;;;;;7.05;6.28;;;12.70;99.90;;;;;;5049760;28;20058;-79
2021/10/05 07:29:49;;;;;;;8.40;6.40;;;12.80;99.90;;;;;;5049354;28;20049;-79
2021/10/05 07:32:16;;;;;;;6.72;5.63;;;13.00;99.90;;;;;;5042025;28;20053;-79
2021/10/05 07:34:43;;;;;;;8.43;5.65;;;13.20;99.90;;;;;;5042119;28;20081;-80
2021/10/05 07:37:11;;;;;;;10.95;5.57;;;13.40;99.90;;;;;;5041744;28;20045;-80
2021/10/05 07:39:39;;;;;;;7.05;5.90;;;13.40;99.90;;;;;;5041948;28;20140;-80
2021/10/05 07:42:07;;;;;;;8.35;6.03;;;13.30;99.90;;;;;;5041405;28;20470;-78
2021/10/05 07:44:34;;;;;;;5.78;4.78;;;13.40;99.90;;;;;;5041506;28;20129;-79
2021/10/05 07:47:01;;;;;;;5.72;4.93;;;13.60;99.90;;;;;;5041191;28;20088;-78
2021/10/05 07:49:28;;;;;;;6.47;4.90;;;14.00;99.90;;;;;;5040962;28;20422;-79
2021/10/05 07:51:55;;;;;;;7.72;5.07;;;14.50;99.90;;;;;;5046542;28;20049;-80
2021/10/05 07:54:22;;;;;;;6.00;4.72;;;14.70;99.90;;;;;;5045124;28;20092;-79
2021/10/05 07:56:50;;;;;;;6.30;4.82;;;14.90;99.90;;;;;;5042823;28;20088;-80
2021/10/05 07:59:17;;;;;;;6.38;4.63;;;15.00;99.90;;;;;;5046111;28;20049;-79
2021/10/05 08:01:49;;;;;;;5.90;4.32;;;14.90;99.90;;;;;;5047071;28;20095;-79
2021/10/05 08:04:19;;;;;;;5.53;4.68;;;15.00;99.90;;;;;;5046619;28;20052;-79
2021/10/05 08:06:46;;;;;;;8.63;4.82;;;15.00;99.90;;;;;;5046801;28;20104;-80
2021/10/05 08:09:14;;;;;;;5.38;4.43;;;15.20;99.90;;;;;;5049753;28;20132;-78
2021/10/05 08:11:41;;;;;;;7.22;4.80;;;15.50;99.90;;;;;;5048246;28;20092;-79
2021/10/05 08:14:10;;;;;;;6.32;4.55;;;15.80;99.90;;;;;;5039663;28;20096;-79
2021/10/05 08:16:37;;;;;;;5.93;4.50;;;16.00;99.90;;;;;;5026230;28;20050;-79
2021/10/05 08:19:04;;;;;;;6.32;4.68;;;16.10;99.90;;;;;;5030447;28;20073;-80
2021/10/05 08:21:34;;;;;;;6.60;4.88;;;16.10;99.90;;;;;;5030696;28;20046;-80
2021/10/05 08:24:00;;;;;;;8.48;4.50;;;16.40;99.90;;;;;;5029011;28;20050;-78
2021/10/05 08:26:30;;;;;;;6.05;4.75;;;16.20;99.90;;;;;;5026523;28;20078;-80
2021/10/05 08:29:00;;;;;;;6.57;4.53;;;16.30;99.90;;;;;;5026143;28;20073;-78
2021/10/05 08:31:28;;;;;;;5.38;4.57;;;16.30;99.90;;;;;;5042247;28;20100;-79
2021/10/05 08:33:55;;;;;;;5.80;4.47;;;16.40;99.90;;;;;;5044824;28;20049;-79
2021/10/05 08:36:22;;;;;;;5.88;4.35;;;16.60;99.90;;;;;;5045852;28;20113;-79
2021/10/05 08:38:49;;;;;;;5.53;4.28;;;16.80;99.90;;;;;;5046191;28;20049;-79
2021/10/05 08:41:16;;;;;;;5.47;4.10;;;16.70;99.90;;;;;;5045428;28;20082;-80
2021/10/05 08:43:44;;;;;;;5.97;4.25;;;16.50;99.90;;;;;;5046059;28;20085;-79
2021/10/05 08:46:11;;;;;;;5.88;4.15;;;16.60;99.90;;;;;;5045155;28;20061;-80
2021/10/05 08:48:41;;;;;;;6.88;4.10;;;16.70;99.90;;;;;;5044412;28;20105;-79
2021/10/05 08:51:09;;;;;;;6.45;3.75;;;16.70;99.90;;;;;;5039505;28;20084;-80
2021/10/05 08:53:37;;;;;;;5.25;4.25;;;16.50;99.90;;;;;;5045725;28;20072;-81
2021/10/05 08:56:06;;;;;;;5.10;4.28;;;16.40;99.90;;;;;;5045238;28;20125;-79
2021/10/05 08:58:33;;;;;;;7.40;4.15;;;16.30;99.90;;;;;;5044611;28;20057;-80
2021/10/05 09:01:08;;;;;;;7.72;3.88;;;16.10;99.90;;;;;;5044427;28;20080;-79
2021/10/05 09:03:35;;;;;;;6.03;4.05;;;16.10;99.90;;;;;;5042765;28;20056;-79
2021/10/05 09:06:11;;;;;;;5.75;4.00;;;16.00;99.90;;;;;;5044547;28;20054;-78
2021/10/05 09:08:41;;;;;;;5.97;3.60;;;15.90;99.90;;;;;;5042259;28;20105;-78
2021/10/05 09:11:09;;;;;;;6.57;3.92;;;16.00;99.90;;;;;;5041749;28;20060;-78
2021/10/05 09:13:39;;;;;;;5.35;3.85;;;16.10;99.90;;;;;;5033120;28;20054;-81
2021/10/05 09:16:20;;;;;;;5.72;3.20;;;16.30;99.90;;;;;;5036868;28;20128;-79
2021/10/05 09:18:58;;;;;;;5.47;3.53;;;16.50;99.90;;;;;;5042824;28;20528;-79
2021/10/05 09:21:29;;;;;;;5.18;3.85;;;16.50;99.90;;;;;;5041765;28;20628;-78
2021/10/05 09:23:58;;;;;;;4.95;3.75;;;16.50;99.90;;;;;;5042827;28;20077;-79
2021/10/05 09:26:37;;;;;;;4.15;3.30;;;16.50;99.90;;;;;;5043874;28;20053;-81
2021/10/05 09:29:14;;;;;;;4.72;3.13;;;16.60;99.90;;;;;;5044524;28;20076;-79
2021/10/05 09:32:00;;;;;;;9.65;4.32;;;16.70;99.90;;;;;;5043288;28;20115;-81
2021/10/05 09:34:50;;;;;;;15.50;4.43;;;16.80;99.90;;;;;;5044928;28;20072;-81
2021/10/05 09:37:19;;;;;;;4.45;3.47;;;16.90;99.90;;;;;;5045656;28;20603;-79
2021/10/05 09:39:51;;;;;;;8.45;3.90;;;17.10;99.90;;;;;;5043609;28;20050;-81
2021/10/05 09:42:23;;;;;;;6.05;3.50;;;17.10;99.90;;;;;;5045464;28;20482;-80
2021/10/05 09:44:54;;;;;;;4.18;3.28;;;17.20;99.90;;;;;;5044821;28;20109;-80
2021/10/05 09:47:35;;;;;;;5.45;3.78;;;17.20;99.90;;;;;;5045674;28;20053;-80
2021/10/05 09:50:04;;;;;;;7.43;3.55;;;17.20;99.90;;;;;;5043809;28;20052;-80
2021/10/05 09:52:45;;;;;;;14.10;3.70;;;17.30;99.90;;;;;;5045874;28;20104;-81
2021/10/05 09:55:12;;;;;;;7.72;3.80;;;17.40;99.90;;;;;;5044052;28;20124;-80
2021/10/05 09:57:39;;;;;;;6.60;3.53;;;17.40;99.90;;;;;;5043138;28;20049;-81
2021/10/05 10:00:09;;;;;;;6.68;3.45;;;17.50;99.90;;;;;;5043743;28;20091;-81
2021/10/05 10:02:37;;;;;;;5.32;3.53;;;17.50;99.90;;;;;;5042842;28;20605;-81
2021/10/05 10:05:07;;;;;;;6.68;3.58;;;17.50;99.90;;;;;;5025124;28;20052;-79
2021/10/05 10:07:38;;;;;;;5.78;3.70;;;17.60;99.90;;;;;;5040908;28;20143;-80
2021/10/05 10:10:10;;;;;;;5.20;3.45;;;17.60;99.90;;;;;;5039495;28;20140;-81
2021/10/05 10:12:38;;;;;;;6.10;3.03;;;17.70;99.90;;;;;;5037415;28;20056;-80
2021/10/05 10:15:07;;;;;;;5.35;3.10;;;17.70;99.90;;;;;;5036945;28;20132;-82
2021/10/05 10:17:34;;;;;;;4.72;3.13;;;17.70;99.90;;;;;;5043718;28;20052;-80
2021/10/05 10:20:01;;;;;;;6.70;3.47;;;17.70;99.90;;;;;;5045605;28;20081;-81
2021/10/05 10:22:29;;;;;;;5.97;3.22;;;17.60;99.90;;;;;;5045012;28;20477;-81
2021/10/05 10:24:57;;;;;;;5.70;3.13;;;17.70;99.90;;;;;;5042695;28;20128;-81
2021/10/05 10:27:26;;;;;;;6.45;3.00;;;17.70;99.90;;;;;;5042133;28;20049;-80
2021/10/05 10:29:54;;;;;;;3.38;2.80;;;17.80;99.90;;;;;;5039894;28;20091;-80
2021/10/05 10:32:24;;;;;;;4.45;2.90;;;17.80;99.90;;;;;;5046551;28;20136;-82
2021/10/05 10:35:03;;;;;;;8.63;3.25;;;17.80;99.90;;;;;;5033280;28;20046;-81
2021/10/05 10:37:42;;;;;;;5.00;2.72;;;17.80;99.90;;;;;;5021782;28;20462;-80
2021/10/05 10:40:10;;;;;;;3.78;3.00;;;17.80;99.90;;;;;;5022321;28;20085;-80
2021/10/05 10:42:38;;;;;;;5.88;2.92;;;17.80;99.90;;;;;;5030651;28;20125;-82
2021/10/05 10:45:14;;;;;;;4.32;3.13;;;17.80;99.90;;;;;;5032616;28;20072;-81
2021/10/05 10:47:41;;;;;;;5.32;2.83;;;17.90;99.90;;;;;;5044638;28;20080;-82
2021/10/05 10:50:10;;;;;;;9.77;3.22;;;17.90;99.90;;;;;;5038482;28;20080;-82
2021/10/05 10:52:41;;;;;;;4.07;2.78;;;18.00;99.90;;;;;;5041153;28;20077;-81
2021/10/05 10:55:09;;;;;;;5.43;2.90;;;18.10;99.90;;;;;;5036244;28;20076;-81
2021/10/05 10:57:39;;;;;;;6.90;3.28;;;18.10;99.90;;;;;;5042780;28;20056;-81
2021/10/05 11:00:19;;;;;;;5.50;3.00;;;18.20;99.90;;;;;;5035391;28;20081;-82
2021/10/05 11:02:48;;;;;;;9.80;3.00;;;18.30;99.90;;;;;;5029890;28;20058;-82
2021/10/05 11:05:20;;;;;;;6.10;3.15;;;18.30;99.90;;;;;;5037960;28;20073;-82
2021/10/05 11:07:48;;;;;;;6.05;3.47;;;18.30;99.90;;;;;;5035251;28;20054;-82
2021/10/05 11:10:14;;;;;;;4.75;2.55;;;18.40;99.90;;;;;;5044888;28;20069;-81
2021/10/05 11:12:54;;;;;;;7.18;2.72;;;18.50;99.90;;;;;;5034442;28;20057;-82
2021/10/05 11:15:35;;;;;;;7.80;3.05;;;18.60;99.90;;;;;;5040071;28;20110;-79
2021/10/05 11:18:04;;;;;;;12.98;3.40;;;18.70;99.90;;;;;;5049652;28;20050;-80
2021/10/05 11:20:31;;;;;;;5.78;3.03;;;18.70;99.90;;;;;;5060193;28;20101;-80
2021/10/05 11:23:01;;;;;;;5.93;3.05;;;18.70;99.90;;;;;;5057742;28;20111;-81
2021/10/05 11:25:28;;;;;;;8.13;3.05;;;18.70;99.90;;;;;;5030933;28;20101;-81
2021/10/05 11:27:57;;;;;;;5.43;3.00;;;18.70;99.90;;;;;;5029989;28;20077;-81
2021/10/05 11:30:24;;;;;;;7.90;2.75;;;18.70;99.90;;;;;;5033043;28;20074;-80
2021/10/05 11:32:51;;;;;;;5.88;2.90;;;18.70;99.90;;;;;;5038032;28;20080;-81
2021/10/05 11:35:18;;;;;;;7.72;3.20;;;18.70;99.90;;;;;;5038862;28;20085;-81
2021/10/05 11:37:45;;;;;;;4.78;2.65;;;18.80;99.90;;;;;;5037647;28;20061;-81
2021/10/05 11:40:12;;;;;;;5.75;2.90;;;18.90;99.90;;;;;;5036337;28;20110;-81
2021/10/05 11:42:40;;;;;;;5.80;3.40;;;18.90;99.90;;;;;;5037901;28;20057;-82
2021/10/05 11:45:09;;;;;;;5.53;3.00;;;18.90;99.90;;;;;;5040046;28;20071;-82
2021/10/05 11:47:36;;;;;;;5.30;2.80;;;19.00;99.90;;;;;;5039057;28;20113;-81
2021/10/05 11:50:06;;;;;;;5.78;2.90;;;19.10;99.90;;;;;;5046097;28;20510;-79
2021/10/05 11:52:37;;;;;;;4.18;2.75;;;19.10;99.90;;;;;;5048518;28;20032;-80
2021/10/05 11:55:05;;;;;;;6.13;3.13;;;19.10;99.90;;;;;;5037495;28;20045;-82
2021/10/05 11:57:34;;;;;;;6.90;2.83;;;19.00;99.90;;;;;;5045258;28;20113;-80
2021/10/05 12:00:04;;;;;;;6.00;2.78;;;19.10;99.90;;;;;;5036862;28;20046;-81
2021/10/05 12:02:36;;;;;;;6.95;3.17;;;19.00;99.90;;;;;;5033527;28;20117;-80
2021/10/05 12:05:04;;;;;;;8.80;4.55;;;19.00;99.90;;;;;;5039364;28;20045;-79
2021/10/05 12:07:31;;;;;;;10.10;2.90;;;18.90;99.90;;;;;;5023666;28;20072;-79
2021/10/05 12:10:01;;;;;;;7.70;3.15;;;18.80;99.90;;;;;;5052148;28;20044;-81
2021/10/05 12:12:31;;;;;;;10.90;2.80;;;18.80;99.90;;;;;;5061850;28;20049;-80
2021/10/05 12:15:00;;;;;;;6.88;3.15;;;18.90;99.90;;;;;;5062052;28;20065;-81
2021/10/05 12:17:28;;;;;;;10.85;3.30;;;18.90;99.90;;;;;;5048184;28;20056;-80
2021/10/05 12:19:58;;;;;;;5.82;3.45;;;18.90;99.90;;;;;;5029754;28;20050;-82
2021/10/05 12:22:27;;;;;;;7.78;3.30;;;18.90;99.90;;;;;;5044706;28;20141;-81
2021/10/05 12:24:56;;;;;;;8.32;2.97;;;19.00;99.90;;;;;;5025482;28;20514;-81
2021/10/05 12:27:36;;;;;;;9.30;3.30;;;19.10;99.90;;;;;;5031807;28;20118;-81
2021/10/05 12:30:08;;;;;;;5.15;3.13;;;19.10;99.90;;;;;;5032701;28;20124;-80
2021/10/05 12:32:38;;;;;;;5.45;2.65;;;19.10;99.90;;;;;;5041146;28;20147;-80
2021/10/05 12:35:20;;;;;;;4.60;2.75;;;19.10;99.90;;;;;;5041940;28;20125;-81
2021/10/05 12:37:47;;;;;;;7.13;2.60;;;19.00;99.90;;;;;;5033410;28;20050;-80
2021/10/05 12:40:20;;;;;;;4.03;2.80;;;19.00;99.90;;;;;;5075122;23;20076;-77
2021/10/05 13:29:27;;;;;;;7.63;2.70;;;18.80;99.90;;;;;;4808052;29;20070;-78
2021/10/05 13:47:30;;;;;;;8.57;3.20;;;17.50;99.90;;;;;;5030495;28;20133;-78
2021/10/05 13:53:02;;;;;;;6.72;2.83;;;17.20;99.90;;;;;;5044768;23;20053;-79
2021/10/05 13:55:35;;;;;;;5.32;2.65;;;17.10;99.90;;;;;;5039116;28;20051;-79
2021/10/05 13:58:08;;;;;;;7.38;2.53;;;17.10;99.90;;;;;;5039533;28;20414;-80